Terminal Aerodrome Forecast
Issued by NWS Wilmington, NC

Home | Current Version | Previous Version | Text Only | Print | Product List | Glossary On
Versions: 1 2 3 4 5 6 7 8 9 10 11 12 13 14 15 16 17 18
000
FTUS42 KILM 050547 CCA
TAFFLO
TAF COR
KFLO 050547Z 0506/0606 22004KT P6SM SCT250
      TEMPO 0508/0512 00000KT 5SM BR HZ
     FM051400 25007KT P6SM SCT050
     FM052000 23008KT P6SM VCTS SCT030CB BKN050
     FM060000 20005KT P6SM BKN250=

USA.gov is the U.S. government's official web portal to all federal, state and local government web resources and services.